Flag for United Kingdom

Past Weather in 52°23'37.8"N, 1°26'05.3"W, United Kingdom — Yesterday and Last 2 Weeks

Currently: 55 °F. Passing clouds. (Weather station: Birmingham / Airport, United Kingdom). See more current weather

Past Weather in 52°23'37.8"N, 1°26'05.3"W — Graph

°F

52°23'37.8"N, 1°26'05.3"W Temperature Yesterday

Maximum temperature yesterday: 50 °F (at 2:50 pm)
Minimum temperature yesterday: 28 °F (at 5:50 am)
Average temperature yesterday: 40 °F

High & Low Weather Summary for the Past Weeks

 TemperatureHumidityPressure
High61 °F (Apr 4, 3:20 pm)100% (Apr 4, 4:20 am)30.57 "Hg (Apr 4, 4:20 am)
Low28 °F (Apr 4, 4:20 am)21% (Apr 5, 1:50 pm)29.86 "Hg (Apr 9, 5:20 am)
Average42 °F64%30.27 "Hg
* Reported Apr 2 3:20 pm — Apr 17 3:20 pm, 52°23'37.8"N, 1°26'05.3"W. Weather by CustomWeather, © 2021

Note: Actual official high and low records may vary slightly from our data, if they occured in-between our weather recording intervals... More about our weather records

52°23'37.8"N, 1°26'05.3"W Weather History for the Previous 24 Hours

Scroll right to see more
 ConditionsComfort  
Time TempWeatherWind HumidityBarometerVisibility
3:20 pm
Sat, Apr 17
55 °FPassing clouds.5 mph38%30.36 "HgN/A
2:50 pm54 °FPassing clouds.7 mph41%30.36 "HgN/A
2:20 pm54 °FPassing clouds.7 mph41%30.36 "HgN/A
1:50 pm54 °FSunny.5 mph41%30.39 "Hg10 mi
1:20 pm52 °FSunny.6 mph44%30.39 "Hg10 mi
12:50 pm52 °FPassing clouds.5 mph44%30.39 "HgN/A
12:20 pm52 °FPassing clouds.5 mph47%30.39 "HgN/A
11:50 am50 °FPassing clouds.6 mph47%30.39 "HgN/A
11:20 am50 °FPassing clouds.5 mph47%30.42 "HgN/A
10:50 am48 °FPassing clouds.5 mph50%30.42 "HgN/A
10:20 am48 °FPassing clouds.5 mph50%30.42 "HgN/A
9:50 am46 °FSunny.2 mph53%30.42 "Hg10 mi
9:20 am45 °FSunny.1 mph57%30.42 "Hg10 mi
8:50 am41 °FSunny.1 mph66%30.42 "Hg10 mi
8:20 am39 °FSunny.1 mph70%30.42 "Hg10 mi
7:20 am36 °FSunny.1 mph75%30.42 "Hg10 mi
6:50 am30 °FSunny.1 mph86%30.42 "Hg10 mi
6:20 am28 °FSunny.1 mph86%30.42 "Hg10 mi
5:50 am28 °FClear.No wind86%30.42 "Hg10 mi
5:20 am28 °FClear.2 mph93%30.42 "Hg10 mi
4:50 am28 °FClear.1 mph86%30.42 "Hg10 mi
4:20 am28 °FClear.No wind93%30.42 "Hg10 mi
3:50 am28 °FClear.No wind93%30.42 "Hg10 mi
3:20 am32 °FClear.1 mph80%30.42 "Hg10 mi
2:50 am32 °FClear.No wind80%30.42 "Hg10 mi
2:20 am32 °FClear.No wind80%30.42 "Hg10 mi
1:50 am30 °FClear.2 mph86%30.45 "Hg10 mi
1:20 am32 °FClear.1 mph87%30.45 "Hg10 mi
12:50 am32 °FClear.No wind87%30.45 "Hg10 mi
12:20 am36 °FClear.No wind75%30.45 "Hg10 mi
11:50 pm
Fri, Apr 16
32 °FClear.2 mph87%30.45 "Hg10 mi
11:20 pm36 °FClear.1 mph75%30.45 "Hg10 mi
10:50 pm34 °FClear.2 mph81%30.45 "Hg10 mi
10:20 pm37 °FClear.No wind70%30.45 "Hg10 mi
9:50 pm41 °FClear.No wind61%30.45 "Hg10 mi
9:20 pm41 °FClear.1 mph61%30.45 "Hg10 mi
8:50 pm43 °FClear.2 mph57%30.42 "Hg10 mi
8:20 pm43 °FClear.3 mph57%30.42 "Hg10 mi
7:50 pm45 °FSunny.5 mph53%30.42 "Hg10 mi
7:20 pm46 °FSunny.7 mph53%30.42 "Hg10 mi
6:50 pm48 °FSunny.6 mph50%30.42 "Hg10 mi
6:20 pm48 °FPassing clouds.5 mph50%30.42 "HgN/A
5:50 pm48 °FPartly sunny.6 mph50%30.42 "HgN/A
5:20 pm48 °FPartly sunny.6 mph46%30.42 "HgN/A
4:50 pm48 °FOvercast.7 mph50%30.42 "HgN/A
4:20 pm48 °FPartly sunny.6 mph46%30.42 "HgN/A
Weather by CustomWeather, © 2021

See weather overview